createdAt,value
2023-02-11T00:02:47.996Z,22.63
2023-02-11T00:06:49.528Z,23.70
2023-02-11T00:10:55.072Z,22.73
2023-02-11T00:14:56.564Z,25.33
2023-02-11T00:19:01.977Z,26.10
2023-02-11T00:23:03.306Z,27.93
2023-02-11T00:27:04.655Z,23.10
2023-02-11T00:31:06.158Z,24.60
2023-02-11T00:35:08.157Z,26.10
2023-02-11T00:39:09.602Z,22.30
2023-02-11T00:43:10.918Z,21.50
2023-02-11T00:47:12.381Z,19.40
2023-02-11T00:51:13.829Z,22.53
2023-02-11T00:55:15.784Z,21.30
2023-02-11T00:59:17.149Z,20.80
2023-02-11T01:03:18.446Z,23.53
2023-02-11T01:07:19.795Z,20.23
2023-02-11T01:11:21.847Z,24.60
2023-02-11T01:15:23.292Z,20.63
2023-02-11T01:19:24.621Z,21.43
2023-02-11T01:23:26.020Z,22.00
2023-02-11T01:27:27.314Z,22.33
2023-02-11T01:31:30.445Z,25.90
2023-02-11T01:35:31.929Z,24.57
2023-02-11T01:39:34.282Z,23.30
2023-02-11T01:43:39.624Z,23.60
2023-02-11T01:47:40.958Z,26.17
2023-02-11T01:51:50.962Z,25.93
2023-02-11T01:56:12.616Z,25.77
2023-02-11T02:00:27.291Z,25.97
2023-02-11T02:04:33.055Z,24.97
2023-02-11T02:08:37.741Z,27.73
2023-02-11T02:12:39.175Z,22.77
2023-02-11T02:16:40.587Z,29.43
2023-02-11T02:21:03.148Z,24.87
2023-02-11T02:25:24.852Z,22.57
2023-02-11T02:30:01.957Z,26.80
2023-02-11T02:34:44.736Z,29.30
2023-02-11T02:39:04.108Z,26.30
2023-02-11T02:43:10.688Z,23.30
2023-02-11T02:47:12.027Z,26.43
2023-02-11T02:51:41.299Z,26.50
2023-02-11T02:56:06.421Z,30.00
2023-02-11T03:00:37.347Z,25.63
2023-02-11T03:04:52.105Z,28.17
2023-02-11T03:08:59.648Z,28.77
2023-02-11T03:13:03.041Z,31.30
2023-02-11T03:17:06.406Z,33.27
2023-02-11T03:21:09.917Z,28.20
2023-02-11T03:25:11.454Z,30.00
2023-02-11T03:29:32.234Z,29.70
2023-02-11T03:33:53.239Z,35.40
2023-02-11T03:38:06.350Z,31.63
2023-02-11T03:42:10.582Z,36.43
2023-02-11T03:46:15.041Z,31.67
2023-02-11T03:50:18.424Z,28.97
2023-02-11T03:54:29.099Z,31.10
2023-02-11T03:58:30.762Z,27.90
2023-02-11T04:02:34.864Z,28.73
2023-02-11T04:06:36.338Z,29.90
2023-02-11T04:10:37.708Z,30.40
2023-02-11T04:14:39.111Z,25.93
2023-02-11T04:18:40.366Z,27.50
2023-02-11T04:22:41.726Z,26.70
2023-02-11T04:26:43.082Z,30.57
2023-02-11T04:30:44.514Z,29.00
2023-02-11T04:34:45.942Z,28.57
2023-02-11T04:38:47.238Z,28.20
2023-02-11T04:42:48.564Z,29.73
2023-02-11T04:46:49.916Z,24.43
2023-02-11T04:50:51.371Z,28.93
2023-02-11T04:54:52.650Z,25.57
2023-02-11T04:58:54.108Z,28.27
2023-02-11T05:02:55.421Z,25.40
2023-02-11T05:06:58.652Z,22.70
2023-02-11T05:11:02.010Z,26.97
2023-02-11T05:15:03.458Z,29.70
2023-02-11T05:19:04.933Z,26.53
2023-02-11T05:23:06.378Z,26.87
2023-02-11T05:27:07.711Z,26.70
2023-02-11T05:31:09.650Z,31.23
2023-02-11T05:35:11.125Z,25.90
2023-02-11T05:39:12.472Z,26.47
2023-02-11T05:43:13.780Z,26.27
2023-02-11T05:47:15.065Z,27.90
2023-02-11T05:51:16.399Z,30.77
2023-02-11T05:55:18.127Z,27.57
2023-02-11T05:59:19.674Z,33.47
2023-02-11T06:03:21.013Z,27.37
2023-02-11T06:07:22.409Z,29.70
2023-02-11T06:11:23.776Z,28.43
2023-02-11T06:15:25.300Z,29.40
2023-02-11T06:19:27.159Z,29.20
2023-02-11T06:23:30.322Z,32.70
2023-02-11T06:27:31.973Z,27.37
2023-02-11T06:31:33.406Z,31.50
2023-02-11T06:35:35.336Z,29.40
2023-02-11T06:39:36.875Z,29.17
2023-02-11T06:43:38.419Z,31.67
2023-02-11T06:47:40.698Z,30.23
2023-02-11T06:51:42.028Z,33.63
2023-02-11T06:55:43.401Z,33.53
2023-02-11T06:59:44.731Z,32.73
2023-02-11T07:03:46.970Z,31.60
2023-02-11T07:07:48.348Z,30.53
2023-02-11T07:11:49.705Z,29.40
2023-02-11T07:15:51.324Z,31.80
2023-02-11T07:19:52.830Z,31.10
2023-02-11T07:23:54.411Z,31.33
2023-02-11T07:27:55.800Z,30.50
2023-02-11T07:31:57.407Z,31.50
2023-02-11T07:36:00.818Z,35.00
2023-02-11T07:40:02.386Z,31.93
2023-02-11T07:44:03.899Z,33.70
2023-02-11T07:48:05.377Z,36.23
2023-02-11T07:52:06.635Z,36.07
2023-02-11T07:56:09.821Z,36.40
2023-02-11T08:00:11.869Z,36.03
2023-02-11T08:04:13.335Z,33.67
2023-02-11T08:08:14.717Z,32.63
2023-02-11T08:12:16.262Z,31.30
2023-02-11T08:16:21.272Z,37.00
2023-02-11T08:20:22.640Z,36.50
2023-02-11T08:24:24.020Z,37.63
2023-02-11T08:28:25.455Z,37.73
2023-02-11T08:32:26.858Z,38.00
2023-02-11T08:36:30.813Z,38.40
2023-02-11T08:40:32.151Z,32.40
2023-02-11T08:44:33.426Z,35.17
2023-02-11T08:48:35.025Z,36.20
2023-02-11T08:52:36.643Z,39.17
2023-02-11T08:56:39.009Z,35.33
2023-02-11T09:00:40.426Z,34.97
2023-02-11T09:04:41.803Z,37.87
2023-02-11T09:08:46.885Z,32.23
2023-02-11T09:12:48.156Z,32.33
2023-02-11T09:16:51.131Z,32.67
2023-02-11T09:20:52.822Z,33.83
2023-02-11T09:24:54.341Z,32.17
2023-02-11T09:28:56.307Z,32.40
2023-02-11T09:32:57.583Z,33.03
2023-02-11T09:36:58.963Z,33.47
2023-02-11T09:41:03.899Z,30.83
2023-02-11T09:45:10.498Z,29.70
2023-02-11T09:49:21.767Z,30.57
2023-02-11T09:53:33.302Z,33.17
2023-02-11T09:57:36.784Z,31.60
2023-02-11T10:01:55.027Z,28.07
2023-02-11T10:06:36.613Z,31.27
2023-02-11T10:11:04.621Z,26.10
2023-02-11T10:15:12.297Z,29.97
2023-02-11T10:19:26.856Z,27.53
2023-02-11T10:23:36.041Z,25.70
2023-02-11T10:27:37.346Z,27.87
2023-02-11T10:31:44.856Z,30.13
2023-02-11T10:35:46.246Z,27.07
2023-02-11T10:39:48.678Z,28.63
2023-02-11T10:43:50.919Z,31.30
2023-02-11T10:47:52.391Z,26.83
2023-02-11T10:52:13.492Z,29.47
2023-02-11T10:56:24.285Z,28.23
2023-02-11T11:00:36.869Z,29.57
2023-02-11T11:04:45.190Z,27.37
2023-02-11T11:08:51.642Z,28.20
2023-02-11T11:12:53.050Z,27.67
2023-02-11T11:16:55.727Z,28.23
2023-02-11T11:21:05.779Z,28.40
2023-02-11T11:25:32.868Z,28.90
2023-02-11T11:29:42.982Z,29.33
2023-02-11T11:33:45.848Z,30.97
2023-02-11T11:38:03.776Z,27.87
2023-02-11T11:42:24.342Z,29.13
2023-02-11T11:46:38.037Z,29.77
2023-02-11T11:50:45.489Z,29.70
2023-02-11T11:54:55.389Z,27.87
2023-02-11T11:58:56.815Z,28.77
2023-02-11T12:03:52.461Z,25.87
2023-02-11T12:08:16.178Z,28.20
2023-02-11T12:12:41.029Z,30.20
2023-02-11T12:17:10.913Z,28.13
2023-02-11T12:21:33.181Z,28.10
2023-02-11T12:25:46.462Z,28.40
2023-02-11T12:30:03.221Z,29.00
2023-02-11T12:34:39.112Z,30.13
2023-02-11T12:39:02.541Z,32.50
2023-02-11T12:43:16.444Z,29.77
2023-02-11T12:47:55.805Z,34.30
2023-02-11T12:52:17.769Z,29.90
2023-02-11T12:56:39.592Z,31.80
2023-02-11T13:00:51.308Z,30.30
2023-02-11T13:05:14.338Z,30.23
2023-02-11T13:09:27.038Z,32.33
2023-02-11T13:13:39.094Z,30.20
2023-02-11T13:17:50.222Z,32.00
2023-02-11T13:22:09.168Z,32.23
2023-02-11T13:26:40.485Z,32.43
2023-02-11T13:30:47.166Z,34.33
2023-02-11T13:34:51.660Z,33.10
2023-02-11T13:38:57.013Z,32.90
2023-02-11T13:43:01.179Z,31.83
2023-02-11T13:47:05.277Z,32.97
2023-02-11T13:51:12.524Z,33.00
2023-02-11T13:55:13.760Z,32.03
2023-02-11T13:59:33.445Z,37.53
2023-02-11T14:03:57.872Z,34.97
2023-02-11T14:08:38.876Z,38.80
2023-02-11T14:12:40.772Z,35.67
2023-02-11T14:17:11.273Z,33.77
2023-02-11T14:21:20.184Z,33.67
2023-02-11T14:25:25.571Z,36.97
2023-02-11T14:29:44.012Z,35.43
2023-02-11T14:34:04.431Z,36.60
2023-02-11T14:38:34.271Z,36.83
2023-02-11T14:42:38.272Z,37.90
2023-02-11T14:46:45.114Z,34.40
2023-02-11T14:50:51.876Z,35.60
2023-02-11T14:55:21.656Z,35.00
2023-02-11T14:59:23.040Z,34.87
2023-02-11T15:03:36.054Z,35.13
2023-02-11T15:07:37.495Z,36.47
2023-02-11T15:11:41.514Z,37.27
2023-02-11T15:15:46.364Z,36.40
2023-02-11T15:19:53.044Z,35.30
2023-02-11T15:24:02.959Z,42.40
2023-02-11T15:28:20.882Z,39.33
2023-02-11T15:32:25.355Z,37.90
2023-02-11T15:36:34.192Z,37.20
2023-02-11T15:40:37.231Z,34.93
2023-02-11T15:44:38.626Z,39.20
2023-02-11T15:48:47.285Z,37.17
2023-02-11T15:52:49.742Z,36.33
2023-02-11T15:56:55.357Z,35.37
2023-02-11T16:00:59.866Z,34.53
2023-02-11T16:05:08.414Z,34.93
2023-02-11T16:09:12.323Z,37.77
2023-02-11T16:13:13.652Z,38.60
2023-02-11T16:17:17.997Z,38.33
2023-02-11T16:21:21.367Z,35.27
2023-02-11T16:25:23.574Z,35.57
2023-02-11T16:29:27.958Z,35.97
2023-02-11T16:33:29.827Z,36.57
2023-02-11T16:37:32.207Z,37.50
2023-02-11T16:41:33.716Z,38.73
2023-02-11T16:45:38.034Z,36.07
2023-02-11T16:49:42.789Z,39.70
2023-02-11T16:53:44.102Z,40.23
2023-02-11T16:57:45.420Z,38.53
2023-02-11T17:01:49.253Z,40.57
2023-02-11T17:05:55.617Z,41.23
2023-02-11T17:09:57.174Z,38.33
2023-02-11T17:13:58.516Z,42.13
2023-02-11T17:17:59.888Z,40.77
2023-02-11T17:22:01.598Z,37.90
2023-02-11T17:26:03.578Z,44.23
2023-02-11T17:30:05.895Z,44.03
2023-02-11T17:34:07.664Z,43.70
2023-02-11T17:38:09.021Z,40.17
2023-02-11T17:42:11.718Z,44.33
2023-02-11T17:46:14.107Z,44.23
2023-02-11T17:50:15.625Z,48.17
2023-02-11T17:54:19.217Z,41.37
2023-02-11T17:58:20.609Z,41.00
2023-02-11T18:02:21.936Z,39.20
2023-02-11T18:06:23.573Z,37.23
2023-02-11T18:10:24.948Z,40.47
2023-02-11T18:14:26.351Z,42.77
2023-02-11T18:18:27.733Z,43.23
2023-02-11T18:22:30.796Z,44.67
2023-02-11T18:26:32.243Z,43.90
2023-02-11T18:30:33.953Z,43.67
2023-02-11T18:34:35.278Z,44.33
2023-02-11T18:38:37.025Z,38.83
2023-02-11T18:42:38.567Z,44.40
2023-02-11T18:46:41.744Z,39.80
2023-02-11T18:50:44.706Z,38.80
2023-02-11T18:54:46.162Z,42.00
2023-02-11T18:58:48.112Z,44.10
2023-02-11T19:02:49.448Z,43.10
2023-02-11T19:06:50.954Z,42.37
2023-02-11T19:10:52.295Z,40.17
2023-02-11T19:14:53.723Z,43.37
2023-02-11T19:18:56.811Z,44.70
2023-02-11T19:22:58.127Z,44.53
2023-02-11T19:27:02.657Z,45.83
2023-02-11T19:31:09.050Z,43.30
2023-02-11T19:35:10.680Z,46.80
2023-02-11T19:39:12.643Z,46.33
2023-02-11T19:43:13.909Z,42.67
2023-02-11T19:47:15.249Z,45.87
2023-02-11T19:51:17.417Z,48.43
2023-02-11T19:55:18.886Z,50.07
2023-02-11T19:59:20.952Z,47.40
2023-02-11T20:03:22.243Z,50.53
2023-02-11T20:07:23.636Z,48.97
2023-02-11T20:11:26.791Z,49.50
2023-02-11T20:15:28.172Z,48.73
2023-02-11T20:19:30.636Z,44.17
2023-02-11T20:23:32.058Z,49.00
2023-02-11T20:27:33.526Z,47.80
2023-02-11T20:31:35.062Z,48.77
2023-02-11T20:35:36.594Z,49.60
2023-02-11T20:39:40.886Z,49.03
2023-02-11T20:43:45.801Z,48.97
2023-02-11T20:47:47.191Z,52.20
2023-02-11T20:51:49.258Z,43.27
2023-02-11T20:55:50.914Z,48.10
2023-02-11T20:59:52.573Z,48.27
2023-02-11T21:04:00.136Z,48.83
2023-02-11T21:08:01.566Z,47.13
2023-02-11T21:12:03.146Z,46.27
2023-02-11T21:16:05.096Z,45.47
2023-02-11T21:20:07.116Z,48.40
2023-02-11T21:24:10.105Z,50.67
2023-02-11T21:28:11.497Z,49.40
2023-02-11T21:32:12.942Z,47.27
2023-02-11T21:36:14.998Z,47.07
2023-02-11T21:40:16.766Z,48.57
2023-02-11T21:44:18.848Z,50.00
2023-02-11T21:48:20.213Z,49.47
2023-02-11T21:52:21.572Z,50.50
2023-02-11T21:56:23.510Z,50.37
2023-02-11T22:00:25.022Z,51.17
2023-02-11T22:04:26.555Z,51.90
2023-02-11T22:08:30.324Z,52.07
2023-02-11T22:12:31.664Z,51.63
2023-02-11T22:16:33.214Z,51.47
2023-02-11T22:20:34.567Z,49.23
2023-02-11T22:24:36.351Z,47.77
2023-02-11T22:28:40.383Z,49.20
2023-02-11T22:32:42.456Z,52.23
2023-02-11T22:36:45.295Z,52.83
2023-02-11T22:40:46.632Z,48.00
2023-02-11T22:44:48.017Z,52.40
2023-02-11T22:48:50.037Z,51.00
2023-02-11T22:52:51.353Z,52.10
2023-02-11T22:56:53.342Z,49.73
2023-02-11T23:00:54.630Z,49.47
2023-02-11T23:04:56.052Z,47.97
2023-02-11T23:08:57.447Z,47.97
2023-02-11T23:12:58.716Z,46.73
2023-02-11T23:17:00.154Z,48.93
2023-02-11T23:21:12.457Z,49.83
2023-02-11T23:25:14.190Z,52.70
2023-02-11T23:29:15.558Z,49.23
2023-02-11T23:33:16.936Z,52.23
2023-02-11T23:37:18.533Z,54.87
2023-02-11T23:41:20.276Z,55.43
2023-02-11T23:45:22.519Z,51.87
2023-02-11T23:49:23.922Z,59.53
2023-02-11T23:53:25.265Z,55.80
2023-02-11T23:57:26.605Z,53.40
